createdAt,value
2018-12-05T00:00:01.124Z,10.20
2018-12-05T00:02:29.066Z,9.90
2018-12-05T00:04:56.525Z,10.90
2018-12-05T00:07:23.910Z,10.70
2018-12-05T00:09:51.485Z,10.87
2018-12-05T00:12:18.783Z,10.33
2018-12-05T00:14:46.068Z,11.00
2018-12-05T00:17:13.430Z,10.90
2018-12-05T00:19:42.121Z,11.37
2018-12-05T00:22:09.425Z,10.23
2018-12-05T00:24:36.780Z,10.30
2018-12-05T00:27:04.375Z,10.97
2018-12-05T00:29:31.847Z,11.47
2018-12-05T00:31:59.161Z,10.37
2018-12-05T00:34:26.448Z,11.53
2018-12-05T00:36:54.089Z,10.93
2018-12-05T00:39:21.375Z,10.63
2018-12-05T00:41:48.815Z,10.60
2018-12-05T00:44:16.563Z,10.90
2018-12-05T00:46:43.910Z,10.33
2018-12-05T00:49:11.689Z,9.43
2018-12-05T00:51:39.094Z,10.47
2018-12-05T00:54:06.462Z,9.87
2018-12-05T00:56:33.843Z,10.80
2018-12-05T00:59:01.184Z,10.03
2018-12-05T01:01:28.658Z,10.13
2018-12-05T01:03:56.025Z,10.57
2018-12-05T01:06:23.367Z,11.37
2018-12-05T01:08:50.876Z,10.73
2018-12-05T01:11:18.253Z,11.10
2018-12-05T01:13:45.639Z,10.47
2018-12-05T01:16:12.967Z,10.77
2018-12-05T01:18:40.599Z,11.27
2018-12-05T01:21:07.976Z,10.80
2018-12-05T01:23:35.306Z,9.73
2018-12-05T01:26:02.636Z,10.20
2018-12-05T01:28:30.115Z,11.33
2018-12-05T01:30:57.421Z,10.63
2018-12-05T01:33:24.820Z,10.80
2018-12-05T01:35:52.128Z,9.87
2018-12-05T01:38:19.445Z,10.40
2018-12-05T01:40:46.857Z,10.70
2018-12-05T01:43:14.268Z,10.57
2018-12-05T01:45:41.659Z,11.00
2018-12-05T01:48:08.958Z,11.73
2018-12-05T01:50:36.761Z,11.37
2018-12-05T01:53:04.139Z,10.47
2018-12-05T01:55:33.410Z,12.10
2018-12-05T01:58:01.932Z,10.43
2018-12-05T02:00:29.348Z,10.33
2018-12-05T02:02:56.704Z,10.37
2018-12-05T02:05:24.132Z,12.73
2018-12-05T02:07:51.448Z,11.17
2018-12-05T02:10:18.816Z,10.20
2018-12-05T02:12:46.165Z,11.87
2018-12-05T02:15:13.543Z,11.63
2018-12-05T02:17:40.887Z,12.70
2018-12-05T02:20:08.332Z,12.53
2018-12-05T02:22:35.722Z,14.70
2018-12-05T02:25:03.135Z,13.10
2018-12-05T02:27:30.560Z,12.17
2018-12-05T02:29:57.875Z,12.80
2018-12-05T02:32:25.418Z,13.37
2018-12-05T02:34:52.801Z,13.50
2018-12-05T02:37:20.284Z,15.13
2018-12-05T02:39:47.661Z,13.50
2018-12-05T02:42:15.222Z,14.30
2018-12-05T02:44:42.546Z,14.30
2018-12-05T02:47:09.976Z,15.67
2018-12-05T02:49:37.390Z,15.93
2018-12-05T03:55:36.368Z,14.30
2018-12-05T03:58:03.690Z,13.40
2018-12-05T04:00:31.363Z,13.67
2018-12-05T04:02:58.908Z,14.70
2018-12-05T04:05:26.244Z,13.80
2018-12-05T04:07:53.547Z,13.30
2018-12-05T04:10:20.902Z,14.07
2018-12-05T04:12:48.230Z,14.03
2018-12-05T04:15:15.550Z,14.97
2018-12-05T04:17:43.047Z,13.83
2018-12-05T04:20:10.492Z,15.63
2018-12-05T04:22:37.822Z,15.10
2018-12-05T04:25:05.276Z,15.23
2018-12-05T04:27:32.609Z,15.00
2018-12-05T04:30:00.101Z,15.00
2018-12-05T04:32:27.461Z,15.00
2018-12-05T04:34:54.808Z,14.87
2018-12-05T04:37:22.262Z,15.00
2018-12-05T04:57:26.835Z,14.43
2018-12-05T04:59:54.181Z,14.00
2018-12-05T05:02:21.999Z,12.83
2018-12-05T05:04:49.324Z,11.80
2018-12-05T05:07:16.809Z,13.53
2018-12-05T05:09:56.554Z,12.10
2018-12-05T05:12:23.879Z,11.60
2018-12-05T05:14:51.191Z,12.17
2018-12-05T05:20:07.579Z,14.00
2018-12-05T05:22:34.908Z,13.30
2018-12-05T05:25:02.194Z,13.37
2018-12-05T05:27:29.544Z,16.20
2018-12-05T05:29:56.878Z,13.27
2018-12-05T05:32:24.176Z,14.00
2018-12-05T05:34:51.523Z,13.60
2018-12-05T05:37:18.871Z,13.50
2018-12-05T05:39:46.207Z,14.97
2018-12-05T06:20:06.568Z,12.33
2018-12-05T06:22:33.924Z,12.40
2018-12-05T06:25:01.864Z,13.70
2018-12-05T06:27:29.179Z,13.40
2018-12-05T06:32:44.983Z,13.10
2018-12-05T06:35:12.497Z,11.50
2018-12-05T06:37:39.802Z,13.20
2018-12-05T06:40:07.293Z,12.20
2018-12-05T06:42:34.739Z,12.03
2018-12-05T06:45:02.075Z,12.17
2018-12-05T06:53:13.437Z,12.70
2018-12-05T06:55:40.811Z,12.27
2018-12-05T06:58:08.155Z,13.10
2018-12-05T07:00:35.506Z,12.50
2018-12-05T07:03:02.796Z,12.93
2018-12-05T07:05:34.488Z,12.80
2018-12-05T07:08:09.040Z,12.53
2018-12-05T07:10:36.414Z,12.97
2018-12-05T07:13:04.974Z,12.70
2018-12-05T07:15:32.506Z,12.47
2018-12-05T07:17:59.793Z,12.00
2018-12-05T07:20:27.225Z,12.53
2018-12-05T07:22:54.577Z,11.90
2018-12-05T07:25:21.916Z,12.67
2018-12-05T07:27:49.207Z,11.93
2018-12-05T07:30:16.596Z,12.33
2018-12-05T07:32:43.978Z,13.10
2018-12-05T07:35:11.484Z,11.77
2018-12-05T07:37:38.793Z,12.17
2018-12-05T07:40:06.257Z,12.17
2018-12-05T07:42:33.676Z,10.47
2018-12-05T07:45:00.986Z,12.37
2018-12-05T07:47:28.323Z,14.00
2018-12-05T07:49:55.617Z,12.60
2018-12-05T07:52:22.957Z,12.93
2018-12-05T07:54:50.403Z,12.73
2018-12-05T07:57:17.698Z,14.60
2018-12-05T07:59:45.317Z,13.10
2018-12-05T08:02:12.648Z,13.40
2018-12-05T08:04:40.039Z,13.30
2018-12-05T08:07:07.505Z,14.67
2018-12-05T08:09:35.086Z,13.87
2018-12-05T08:12:02.412Z,14.63
2018-12-05T08:14:29.731Z,13.70
2018-12-05T08:16:57.039Z,13.83
2018-12-05T08:19:24.395Z,14.27
2018-12-05T08:21:51.690Z,14.27
2018-12-05T08:24:18.987Z,12.73
2018-12-05T08:26:46.270Z,14.27
2018-12-05T08:29:13.600Z,13.23
2018-12-05T08:31:40.940Z,13.00
2018-12-05T08:34:08.592Z,12.87
2018-12-05T08:36:35.920Z,13.17
2018-12-05T08:39:05.052Z,12.70
2018-12-05T08:41:32.347Z,14.33
2018-12-05T08:43:59.656Z,13.73
2018-12-05T08:46:27.021Z,13.30
2018-12-05T08:48:54.378Z,13.43
2018-12-05T08:51:21.681Z,13.30
2018-12-05T08:53:49.031Z,13.77
2018-12-05T08:56:16.383Z,13.63
2018-12-05T08:58:43.683Z,12.97
2018-12-05T09:01:11.052Z,13.60
2018-12-05T09:03:38.374Z,14.80
2018-12-05T09:06:05.720Z,14.03
2018-12-05T09:08:33.071Z,14.13
2018-12-05T09:11:04.149Z,13.17
2018-12-05T09:13:48.000Z,14.00
2018-12-05T09:16:19.590Z,13.10
2018-12-05T09:18:50.410Z,12.90
2018-12-05T09:21:21.498Z,13.47
2018-12-05T09:23:55.027Z,12.43
2018-12-05T09:29:18.096Z,13.47
2018-12-05T09:34:41.787Z,13.73
2018-12-05T09:40:00.683Z,13.80
2018-12-05T09:45:20.026Z,12.43
2018-12-05T09:47:47.675Z,13.30
2018-12-05T09:50:15.053Z,12.80
2018-12-05T09:55:45.008Z,13.07
2018-12-05T10:01:18.235Z,12.17
2018-12-05T10:03:45.557Z,11.50
2018-12-05T10:06:12.956Z,11.00
2018-12-05T10:08:40.295Z,11.03
2018-12-05T10:11:07.600Z,10.53
2018-12-05T10:13:35.333Z,11.70
2018-12-05T10:16:02.704Z,9.93
2018-12-05T10:18:30.026Z,10.20
2018-12-05T10:20:57.395Z,9.53
2018-12-05T10:23:24.736Z,10.03
2018-12-05T10:25:52.156Z,10.10
2018-12-05T10:28:19.488Z,11.90
2018-12-05T10:30:46.904Z,13.10
2018-12-05T10:33:14.255Z,12.00
2018-12-05T10:35:41.666Z,11.30
2018-12-05T10:38:09.003Z,10.37
2018-12-05T10:40:36.366Z,9.87
2018-12-05T10:43:04.316Z,10.70
2018-12-05T10:45:32.448Z,12.33
2018-12-05T10:51:01.890Z,11.77
2018-12-05T10:53:29.387Z,11.43
2018-12-05T10:55:56.803Z,12.80
2018-12-05T10:58:24.232Z,10.50
2018-12-05T11:00:57.208Z,11.50
2018-12-05T11:08:57.239Z,11.37
2018-12-05T11:11:36.413Z,12.20
2018-12-05T11:14:09.333Z,13.60
2018-12-05T11:16:41.940Z,11.50
2018-12-05T11:19:14.725Z,13.17
2018-12-05T11:21:49.776Z,11.50
2018-12-05T11:27:09.817Z,11.07
2018-12-05T11:29:37.238Z,11.70
2018-12-05T11:32:04.694Z,11.20
2018-12-05T11:34:32.334Z,11.60
2018-12-05T11:37:09.643Z,11.10
2018-12-05T11:39:51.304Z,11.10
2018-12-05T11:42:18.898Z,12.33
2018-12-05T11:44:56.679Z,11.73
2018-12-05T11:47:24.076Z,12.03
2018-12-05T11:49:51.813Z,11.80
2018-12-05T11:52:19.571Z,11.23
2018-12-05T11:54:47.050Z,12.30
2018-12-05T11:57:19.978Z,13.10
2018-12-05T11:59:52.332Z,11.80
2018-12-05T12:02:23.337Z,12.80
2018-12-05T12:04:56.353Z,12.57
2018-12-05T12:07:37.624Z,11.73
2018-12-05T12:10:09.024Z,11.07
2018-12-05T12:12:48.156Z,11.33
2018-12-05T12:15:19.211Z,10.33
2018-12-05T12:17:56.278Z,9.43
2018-12-05T12:20:33.905Z,11.17
2018-12-05T12:23:05.105Z,9.50
2018-12-05T12:31:15.476Z,10.37
2018-12-05T12:33:42.976Z,10.80
2018-12-05T12:36:10.717Z,11.07
2018-12-05T12:38:38.353Z,10.30
2018-12-05T12:41:15.406Z,11.07
2018-12-05T12:43:49.131Z,11.90
2018-12-05T12:46:32.587Z,11.33
2018-12-05T12:48:59.968Z,11.23
2018-12-05T12:51:27.343Z,10.90
2018-12-05T12:53:54.733Z,12.67
2018-12-05T12:56:22.152Z,11.70
2018-12-05T12:58:49.598Z,12.27
2018-12-05T13:01:17.285Z,12.93
2018-12-05T13:06:36.249Z,12.60
2018-12-05T13:09:10.277Z,14.17
2018-12-05T13:11:52.308Z,15.47
2018-12-05T13:14:26.015Z,14.50
2018-12-05T13:16:59.885Z,13.70
2018-12-05T13:19:41.337Z,14.77
2018-12-05T13:25:00.975Z,15.00
2018-12-05T13:27:32.275Z,14.60
2018-12-05T13:29:59.806Z,13.90
2018-12-05T13:32:32.773Z,14.00
2018-12-05T13:35:00.096Z,14.40
2018-12-05T13:37:33.992Z,13.63
2018-12-05T13:40:01.378Z,13.67
2018-12-05T13:42:28.750Z,13.00
2018-12-05T13:44:56.058Z,14.53
2018-12-05T13:47:23.457Z,13.60
2018-12-05T13:49:50.889Z,14.73
2018-12-05T13:55:09.687Z,13.57
2018-12-05T13:57:37.029Z,13.30
2018-12-05T14:00:06.204Z,13.10
2018-12-05T14:05:27.129Z,15.07
2018-12-05T14:07:54.497Z,13.90
2018-12-05T14:10:21.871Z,13.43
2018-12-05T14:12:49.382Z,13.63
2018-12-05T14:20:57.548Z,13.13
2018-12-05T14:23:28.258Z,12.57
2018-12-05T14:28:47.419Z,13.70
2018-12-05T14:34:06.758Z,14.37
2018-12-05T14:36:37.559Z,14.90
2018-12-05T14:44:48.695Z,12.37
2018-12-05T14:50:07.917Z,14.63
2018-12-05T14:52:35.355Z,13.03
2018-12-05T15:09:21.375Z,16.83
2018-12-05T15:11:54.267Z,15.50
2018-12-05T15:14:29.883Z,15.60
2018-12-05T15:17:10.008Z,14.70
2018-12-05T15:19:40.627Z,14.83
2018-12-05T15:24:59.452Z,14.60
2018-12-05T15:27:26.923Z,14.40
2018-12-05T15:30:06.460Z,15.30
2018-12-05T15:32:39.777Z,15.73
2018-12-05T15:35:21.381Z,15.73
2018-12-05T15:37:55.662Z,16.87
2018-12-05T15:40:29.512Z,15.40
2018-12-05T15:43:06.985Z,18.23
2018-12-05T15:51:33.365Z,14.30
2018-12-05T15:54:11.895Z,14.50
2018-12-05T15:56:41.458Z,14.53
2018-12-05T15:59:18.868Z,14.47
2018-12-05T16:01:52.479Z,15.50
2018-12-05T16:04:23.708Z,14.87
2018-12-05T16:06:56.596Z,14.83
2018-12-05T16:09:23.995Z,14.97
2018-12-05T16:11:57.622Z,15.17
2018-12-05T16:14:28.186Z,14.53
2018-12-05T16:19:41.040Z,15.00
2018-12-05T16:25:01.211Z,16.30
2018-12-05T16:27:32.474Z,14.57
2018-12-05T16:29:59.879Z,16.37
2018-12-05T16:32:30.695Z,15.60
2018-12-05T16:34:58.047Z,15.33
2018-12-05T16:37:31.061Z,14.90
2018-12-05T16:45:48.358Z,14.50
2018-12-05T16:51:12.151Z,15.70
2018-12-05T16:53:48.962Z,14.97
2018-12-05T16:56:22.641Z,16.47
2018-12-05T16:58:56.852Z,15.60
2018-12-05T17:01:29.870Z,14.50
2018-12-05T17:04:01.516Z,14.00
2018-12-05T17:06:41.494Z,14.10
2018-12-05T17:17:44.538Z,16.33
2018-12-05T17:20:17.874Z,13.97
2018-12-05T17:22:45.328Z,13.67
2018-12-05T17:25:16.880Z,13.63
2018-12-05T17:33:29.082Z,14.10
2018-12-05T17:38:58.029Z,14.20
2018-12-05T17:41:25.323Z,16.07
2018-12-05T17:43:58.268Z,15.40
2018-12-05T17:49:18.964Z,16.17
2018-12-05T17:51:49.383Z,14.80
2018-12-05T17:57:21.583Z,15.43
2018-12-05T17:59:56.302Z,13.87
2018-12-05T18:10:55.936Z,15.00
2018-12-05T18:22:26.220Z,15.60
2018-12-05T18:33:35.423Z,15.20
2018-12-05T18:36:13.069Z,16.50
2018-12-05T18:41:42.074Z,15.80
2018-12-05T18:47:12.286Z,16.03
2018-12-05T18:52:34.883Z,14.90
2018-12-05T18:55:08.448Z,15.90
2018-12-05T18:57:39.931Z,15.77
2018-12-05T19:00:13.536Z,15.80
2018-12-05T19:08:24.544Z,14.53
2018-12-05T19:10:55.671Z,14.17
2018-12-05T19:16:22.229Z,15.87
2018-12-05T19:18:57.554Z,13.73
2018-12-05T19:24:20.473Z,16.00
2018-12-05T19:26:52.297Z,15.20
2018-12-05T19:29:19.666Z,16.00
2018-12-05T19:34:36.252Z,17.10
2018-12-05T19:37:19.224Z,18.73
2018-12-05T19:42:44.740Z,19.03
2018-12-05T19:45:12.346Z,19.33
2018-12-05T19:47:56.180Z,20.80
2018-12-05T19:56:18.471Z,21.13
2018-12-05T20:04:34.671Z,20.30
2018-12-05T20:12:54.947Z,22.47
2018-12-05T20:21:16.444Z,23.20
2018-12-05T20:23:44.040Z,22.23
2018-12-05T20:26:11.606Z,23.20
2018-12-05T20:28:44.507Z,23.20
2018-12-05T20:36:56.708Z,24.47
2018-12-05T20:39:26.108Z,23.57
2018-12-05T20:47:42.848Z,20.90
2018-12-05T20:50:22.642Z,22.20
2018-12-05T20:55:38.917Z,24.37
2018-12-05T20:58:07.075Z,24.00
2018-12-05T21:03:27.591Z,23.33
2018-12-05T21:05:54.945Z,23.67
2018-12-05T21:08:22.344Z,22.70
2018-12-05T21:10:49.759Z,22.97
2018-12-05T21:13:17.120Z,22.60
2018-12-05T21:15:44.538Z,22.93
2018-12-05T21:18:11.917Z,24.20
2018-12-05T21:20:39.301Z,23.00
2018-12-05T21:23:06.908Z,23.10
2018-12-05T21:25:34.412Z,23.20
2018-12-05T21:28:01.815Z,22.27
2018-12-05T21:30:29.228Z,22.53
2018-12-05T21:32:56.629Z,23.63
2018-12-05T21:38:16.534Z,23.27
2018-12-05T21:40:44.796Z,21.10
2018-12-05T21:43:12.986Z,23.17
2018-12-05T21:45:41.964Z,22.07
2018-12-05T21:48:09.337Z,20.93
2018-12-05T21:50:36.751Z,22.57
2018-12-05T21:53:04.154Z,21.23
2018-12-05T21:55:32.414Z,22.00
2018-12-05T21:57:59.769Z,23.20
2018-12-05T22:00:27.342Z,22.60
2018-12-05T22:02:55.273Z,21.83
2018-12-05T22:05:22.641Z,20.60
2018-12-05T22:07:50.177Z,21.40
2018-12-05T22:10:17.601Z,20.70
2018-12-05T22:12:45.562Z,24.40
2018-12-05T22:15:14.754Z,24.43
2018-12-05T22:17:42.082Z,22.07
2018-12-05T22:20:09.363Z,22.87
2018-12-05T22:22:36.623Z,22.73
2018-12-05T22:25:04.692Z,21.20
2018-12-05T22:27:32.170Z,20.87
2018-12-05T22:29:59.447Z,21.70
2018-12-05T22:32:27.910Z,21.80
2018-12-05T22:34:55.213Z,21.47
2018-12-05T22:37:22.500Z,22.93
2018-12-05T22:39:49.900Z,23.37
2018-12-05T22:42:17.225Z,23.10
2018-12-05T22:44:44.632Z,25.20
2018-12-05T22:47:11.937Z,23.50
2018-12-05T22:49:39.265Z,23.40
2018-12-05T22:52:06.690Z,22.07
2018-12-05T22:54:33.992Z,24.23
2018-12-05T22:57:17.099Z,23.40
2018-12-05T22:59:44.421Z,22.27
2018-12-05T23:02:11.870Z,24.50
2018-12-05T23:04:39.410Z,22.83
2018-12-05T23:07:06.801Z,24.90
2018-12-05T23:09:34.984Z,23.60
2018-12-05T23:12:02.429Z,22.87
2018-12-05T23:14:29.733Z,23.87
2018-12-05T23:16:57.064Z,23.93
2018-12-05T23:19:25.113Z,23.87
2018-12-05T23:21:52.419Z,26.53
2018-12-05T23:24:19.699Z,24.17
2018-12-05T23:26:47.020Z,24.20
2018-12-05T23:29:14.354Z,24.30
2018-12-05T23:31:41.740Z,25.30
2018-12-05T23:34:09.089Z,22.20
2018-12-05T23:36:36.397Z,21.57
2018-12-05T23:39:06.336Z,24.77
2018-12-05T23:41:33.757Z,23.57
2018-12-05T23:44:01.063Z,23.90
2018-12-05T23:46:28.579Z,22.70
2018-12-05T23:48:55.913Z,23.43
2018-12-05T23:51:23.258Z,24.87
2018-12-05T23:53:50.616Z,21.20
2018-12-05T23:56:22.055Z,23.13
2018-12-05T23:58:49.446Z,23.67
